Time;durP1;ratioP1;P1;durP2;ratioP2;P2;SDS_P1;SDS_P2;PMS_P1;PMS_P2;Temp;Humidity;BMP_temperature;BMP_pressure;BME280_temperature;BME280_humidity;BME280_pressure;Samples;Min_cycle;Max_cycle;Signal;HPM_P1;HPM_P2
2022/03/05 00:01:20;;;;;;;20.67;9.27;;;;;2.10;101530.00;;;;4888818;29;20238;-70
2022/03/05 00:04:07;;;;;;;22.67;9.00;;;;;2.10;101528.00;;;;4900721;29;20647;-71
2022/03/05 00:06:53;;;;;;;25.17;9.60;;;;;1.90;101523.00;;;;4900407;29;20350;-70
2022/03/05 00:09:43;;;;;;;21.77;8.90;;;;;1.90;101533.00;;;;4895973;29;20918;-69
2022/03/05 00:12:30;;;;;;;24.30;8.40;;;;;1.80;101532.00;;;;4889617;29;20234;-69
2022/03/05 00:15:17;;;;;;;26.43;9.30;;;;;1.70;101537.00;;;;4899438;29;20226;-68
2022/03/05 00:18:03;;;;;;;18.93;8.13;;;;;1.70;101534.00;;;;4892049;29;20340;-70
2022/03/05 00:20:51;;;;;;;21.43;8.40;;;;;1.80;101532.00;;;;4895279;29;20721;-69
2022/03/05 00:23:37;;;;;;;18.47;9.20;;;;;1.60;101530.00;;;;4906362;29;20598;-69
2022/03/05 00:26:25;;;;;;;23.10;10.00;;;;;1.60;101530.00;;;;4907728;29;20717;-67
2022/03/05 00:29:11;;;;;;;21.63;8.93;;;;;1.60;101527.00;;;;4891293;29;20242;-69
2022/03/05 00:31:57;;;;;;;21.83;7.70;;;;;1.50;101524.00;;;;4896696;29;20249;-69
2022/03/05 00:34:44;;;;;;;22.83;8.53;;;;;1.50;101533.00;;;;4902409;29;20241;-69
2022/03/05 00:37:30;;;;;;;19.63;8.83;;;;;1.50;101512.00;;;;4891284;29;20241;-68
2022/03/05 00:40:17;;;;;;;24.00;8.90;;;;;1.60;101530.00;;;;4889807;29;20301;-69
2022/03/05 00:43:04;;;;;;;24.93;9.53;;;;;1.50;101537.00;;;;4897149;29;20235;-68
2022/03/05 00:45:51;;;;;;;22.67;9.60;;;;;1.50;101525.00;;;;4889700;29;20707;-71
2022/03/05 00:48:37;;;;;;;24.67;8.87;;;;;1.60;101517.00;;;;4898090;29;20237;-69
2022/03/05 00:51:23;;;;;;;23.33;8.60;;;;;1.50;101517.00;;;;4903831;29;20227;-67
2022/03/05 00:54:09;;;;;;;22.97;9.27;;;;;1.50;101530.00;;;;4901788;29;20229;-67
2022/03/05 00:56:56;;;;;;;20.93;9.00;;;;;1.40;101522.00;;;;4900250;29;20220;-67
2022/03/05 00:59:43;;;;;;;17.27;8.23;;;;;1.40;101515.00;;;;4904946;29;20887;-66
2022/03/05 01:02:31;;;;;;;24.67;9.57;;;;;1.40;101527.00;;;;4903436;29;20246;-66
2022/03/05 01:05:17;;;;;;;21.20;8.73;;;;;1.60;101526.00;;;;4901222;29;20253;-67
2022/03/05 01:08:04;;;;;;;26.20;8.90;;;;;1.40;101523.00;;;;4906856;29;20236;-67
2022/03/05 01:10:50;;;;;;;26.27;9.37;;;;;1.40;101510.00;;;;4908323;29;20241;-66
2022/03/05 01:13:37;;;;;;;26.20;8.80;;;;;1.40;101512.00;;;;4899862;29;20832;-68
2022/03/05 01:20:16;;;;;;;22.50;8.63;;;;;1.30;101504.00;;;;5217739;23;20455;-69
2022/03/05 01:23:04;;;;;;;19.73;7.30;;;;;1.20;101502.00;;;;4897979;29;20238;-68
2022/03/05 01:25:50;;;;;;;24.27;8.40;;;;;1.10;101498.00;;;;4900892;29;20297;-70
2022/03/05 01:28:36;;;;;;;21.43;8.50;;;;;1.10;101512.00;;;;4895398;29;20237;-70
2022/03/05 01:31:23;;;;;;;25.83;9.47;;;;;1.00;101500.00;;;;4898317;29;20310;-69
2022/03/05 01:34:09;;;;;;;22.87;9.93;;;;;1.00;101502.00;;;;4910934;29;20653;-71
2022/03/05 01:36:55;;;;;;;26.40;9.73;;;;;1.10;101502.00;;;;4909467;29;20282;-69
2022/03/05 01:39:43;;;;;;;20.40;8.13;;;;;1.00;101504.00;;;;4905669;29;20731;-67
2022/03/05 01:42:29;;;;;;;23.10;8.47;;;;;0.90;101505.00;;;;4908388;29;20252;-66
2022/03/05 01:45:15;;;;;;;25.17;8.80;;;;;0.90;101500.00;;;;4911359;29;20289;-68
2022/03/05 01:48:03;;;;;;;16.17;8.37;;;;;0.90;101480.00;;;;4911672;29;20282;-68
2022/03/05 01:50:49;;;;;;;22.93;8.47;;;;;0.90;101500.00;;;;4907308;29;20716;-68
2022/03/05 01:53:35;;;;;;;22.27;8.53;;;;;0.80;101500.00;;;;4904403;29;20237;-69
2022/03/05 01:56:26;;;;;;;25.83;9.80;;;;;0.80;101498.00;;;;4910779;29;20380;-68
2022/03/05 01:59:12;;;;;;;23.27;8.77;;;;;0.80;101493.00;;;;4905513;29;20234;-69
2022/03/05 02:01:59;;;;;;;20.30;7.87;;;;;0.80;101494.00;;;;4907405;29;20246;-68
2022/03/05 02:04:46;;;;;;;16.77;7.33;;;;;0.60;101492.00;;;;4913381;29;20237;-68
2022/03/05 02:07:32;;;;;;;16.07;7.33;;;;;0.80;101494.00;;;;4903416;29;20924;-71
2022/03/05 02:10:20;;;;;;;21.20;7.90;;;;;0.70;101498.00;;;;4910536;29;20225;-68
2022/03/05 02:13:07;;;;;;;21.80;8.73;;;;;0.70;101491.00;;;;4910451;29;20233;-67
2022/03/05 02:15:55;;;;;;;22.00;8.27;;;;;0.70;101489.00;;;;4910860;29;20278;-68
2022/03/05 02:18:45;;;;;;;26.23;8.20;;;;;0.60;101486.00;;;;4904594;29;20293;-65
2022/03/05 02:21:32;;;;;;;21.33;8.20;;;;;0.70;101492.00;;;;4909795;29;20241;-68
2022/03/05 02:24:31;;;;;;;23.07;8.87;;;;;0.70;101481.00;;;;4912570;29;20232;-69
2022/03/05 02:27:17;;;;;;;22.63;8.83;;;;;0.60;101482.00;;;;4910335;29;20229;-68
2022/03/05 02:30:05;;;;;;;27.30;8.07;;;;;0.60;101479.00;;;;4906447;29;20257;-69
2022/03/05 02:32:51;;;;;;;24.27;7.27;;;;;0.40;101483.00;;;;4895369;29;20232;-68
2022/03/05 02:35:37;;;;;;;25.80;8.60;;;;;0.50;101482.00;;;;4893146;29;20378;-67
2022/03/05 02:38:25;;;;;;;26.40;8.10;;;;;0.40;101485.00;;;;4893306;29;20233;-68
2022/03/05 02:41:11;;;;;;;20.57;8.67;;;;;0.40;101494.00;;;;4895883;29;20720;-68
2022/03/05 02:43:59;;;;;;;22.33;8.80;;;;;0.30;101478.00;;;;4896360;29;20273;-67
2022/03/05 02:46:46;;;;;;;19.33;7.93;;;;;0.30;101475.00;;;;4895264;29;20240;-68
2022/03/05 02:49:32;;;;;;;18.77;8.37;;;;;0.30;101474.00;;;;4897110;29;20668;-66
2022/03/05 02:52:18;;;;;;;19.17;7.17;;;;;0.20;101480.00;;;;4909829;29;20237;-69
2022/03/05 02:55:07;;;;;;;21.10;8.57;;;;;0.30;101465.00;;;;4912015;29;20723;-68
2022/03/05 02:57:53;;;;;;;18.63;7.47;;;;;0.10;101479.00;;;;4910063;29;20367;-68
2022/03/05 03:00:40;;;;;;;24.03;9.37;;;;;0.10;101483.00;;;;4903926;29;20316;-68
2022/03/05 03:03:27;;;;;;;14.80;6.43;;;;;0.00;101467.00;;;;4894331;29;20261;-69
2022/03/05 03:06:15;;;;;;;20.63;8.83;;;;;0.00;101464.00;;;;4907785;29;20233;-68
2022/03/05 03:09:01;;;;;;;20.53;7.93;;;;;0.10;101467.00;;;;4908549;29;20369;-70
2022/03/05 03:11:48;;;;;;;25.37;7.87;;;;;0.10;101474.00;;;;4908151;29;20673;-68
2022/03/05 03:14:35;;;;;;;21.70;8.73;;;;;0.00;101469.00;;;;4898522;29;20318;-68
2022/03/05 03:17:22;;;;;;;28.97;8.97;;;;;0.10;101470.00;;;;4899187;29;20229;-68
2022/03/05 03:20:10;;;;;;;23.47;8.70;;;;;0.10;101463.00;;;;4894522;29;20278;-68
2022/03/05 03:22:56;;;;;;;18.80;8.07;;;;;0.10;101464.00;;;;4895982;29;20246;-69
2022/03/05 03:25:43;;;;;;;18.27;8.40;;;;;0.00;101463.00;;;;4907555;29;20237;-68
2022/03/05 03:28:30;;;;;;;18.10;7.70;;;;;0.00;101466.00;;;;4906269;29;20361;-66
2022/03/05 03:31:16;;;;;;;23.90;9.00;;;;;-0.10;101468.00;;;;4906536;29;20288;-71
2022/03/05 03:34:02;;;;;;;21.07;7.90;;;;;0.10;101463.00;;;;4909397;29;20342;-65
2022/03/05 03:36:48;;;;;;;20.77;7.90;;;;;0.10;101469.00;;;;4909490;29;20258;-68
2022/03/05 03:39:35;;;;;;;24.20;9.43;;;;;-0.10;101466.00;;;;4906615;29;20244;-69
2022/03/05 03:42:21;;;;;;;22.40;7.20;;;;;-0.10;101472.00;;;;4907862;29;20264;-68
2022/03/05 03:45:10;;;;;;;24.17;7.50;;;;;0.00;101467.00;;;;4909030;29;20233;-68
2022/03/05 03:47:57;;;;;;;17.67;8.30;;;;;-0.20;101471.00;;;;4901788;29;20755;-68
2022/03/05 03:50:43;;;;;;;25.43;8.87;;;;;-0.30;101473.00;;;;4904700;29;20616;-67
2022/03/05 03:53:29;;;;;;;20.70;7.93;;;;;-0.20;101474.00;;;;4900543;29;20237;-68
2022/03/05 03:56:16;;;;;;;22.67;8.63;;;;;-0.30;101480.00;;;;4911507;29;20236;-68
2022/03/05 03:59:03;;;;;;;26.43;8.73;;;;;-0.20;101477.00;;;;4910808;29;20321;-69
2022/03/05 04:01:50;;;;;;;21.53;7.70;;;;;-0.20;101488.00;;;;4912164;29;20233;-68
2022/03/05 04:04:37;;;;;;;31.67;8.83;;;;;-0.30;101491.00;;;;4906679;29;20265;-67
2022/03/05 04:10:28;;;;;;;18.87;7.03;;;;;-0.30;101487.00;;;;4905021;29;20233;-69
2022/03/05 04:13:15;;;;;;;22.57;8.93;;;;;-0.30;101493.00;;;;4912863;29;20229;-67
2022/03/05 04:16:01;;;;;;;17.87;8.00;;;;;-0.30;101481.00;;;;4912957;29;20365;-67
2022/03/05 04:18:48;;;;;;;20.47;8.03;;;;;-0.50;101482.00;;;;4915201;29;20955;-67
2022/03/05 04:21:35;;;;;;;27.10;9.47;;;;;-0.40;101494.00;;;;4914654;29;20614;-68
2022/03/05 04:24:21;;;;;;;21.53;8.00;;;;;-0.30;101484.00;;;;4912694;29;20289;-69
2022/03/05 04:27:08;;;;;;;24.33;9.03;;;;;-0.40;101490.00;;;;4909887;29;20233;-68
2022/03/05 04:29:54;;;;;;;23.97;8.57;;;;;-0.60;101494.00;;;;4909924;29;20314;-68
2022/03/05 04:32:41;;;;;;;20.53;7.57;;;;;-0.50;101490.00;;;;4912503;29;20329;-67
2022/03/05 04:35:28;;;;;;;20.30;9.67;;;;;-0.50;101491.00;;;;4912785;29;20248;-67
2022/03/05 04:38:15;;;;;;;19.07;7.97;;;;;-0.40;101490.00;;;;4911841;29;20228;-67
2022/03/05 04:41:01;;;;;;;26.53;8.40;;;;;-0.50;101491.00;;;;4914722;29;20284;-68
2022/03/05 04:43:48;;;;;;;22.77;8.37;;;;;-0.60;101488.00;;;;4907467;29;20240;-66
2022/03/05 04:46:34;;;;;;;22.00;8.43;;;;;-0.50;101483.00;;;;4905489;29;20252;-69
2022/03/05 04:49:21;;;;;;;19.17;7.93;;;;;-0.50;101494.00;;;;4912055;29;20236;-68
2022/03/05 04:52:08;;;;;;;24.47;8.83;;;;;-0.50;101485.00;;;;4912128;29;20347;-67
2022/03/05 04:54:54;;;;;;;18.33;7.40;;;;;-0.60;101488.00;;;;4912657;29;20289;-66
2022/03/05 04:57:41;;;;;;;17.87;7.83;;;;;-0.50;101485.00;;;;4905899;29;20233;-67
2022/03/05 05:00:27;;;;;;;20.80;8.07;;;;;-0.50;101486.00;;;;4904626;29;20229;-68
2022/03/05 05:03:14;;;;;;;16.90;7.90;;;;;-0.60;101488.00;;;;4917975;29;20309;-67
2022/03/05 05:06:01;;;;;;;21.07;7.47;;;;;-0.70;101491.00;;;;4912158;29;20370;-67
2022/03/05 05:08:48;;;;;;;20.30;8.60;;;;;-0.60;101494.00;;;;4908806;29;20337;-68
2022/03/05 05:11:35;;;;;;;19.10;8.13;;;;;-0.60;101502.00;;;;4904492;29;20252;-69
2022/03/05 05:14:21;;;;;;;21.20;8.17;;;;;-0.70;101496.00;;;;4914165;29;20360;-68
2022/03/05 05:17:08;;;;;;;19.43;8.93;;;;;-0.80;101491.00;;;;4913774;29;20634;-68
2022/03/05 05:19:54;;;;;;;14.43;8.13;;;;;-0.90;101496.00;;;;4914233;29;20253;-68
2022/03/05 05:22:40;;;;;;;20.37;8.43;;;;;-0.80;101493.00;;;;4905371;29;20589;-68
2022/03/05 05:25:28;;;;;;;22.63;8.77;;;;;-0.80;101494.00;;;;4904249;29;20237;-68
2022/03/05 05:28:14;;;;;;;25.20;9.13;;;;;-0.90;101503.00;;;;4905249;29;20359;-68
2022/03/05 05:31:05;;;;;;;20.17;7.63;;;;;-0.90;101505.00;;;;4905680;29;20256;-67
2022/03/05 05:33:52;;;;;;;17.47;7.53;;;;;-1.00;101504.00;;;;4909917;29;20277;-67
2022/03/05 05:36:38;;;;;;;19.30;7.87;;;;;-1.00;101504.00;;;;4905250;29;20866;-68
2022/03/05 05:39:24;;;;;;;22.27;9.47;;;;;-0.90;101501.00;;;;4911370;29;20249;-69
2022/03/05 05:42:12;;;;;;;21.20;8.07;;;;;-0.90;101496.00;;;;4912199;29;20302;-68
2022/03/05 05:44:58;;;;;;;18.53;7.53;;;;;-1.00;101498.00;;;;4911814;29;20237;-69
2022/03/05 05:47:45;;;;;;;22.00;7.43;;;;;-0.90;101503.00;;;;4905604;29;20229;-66
2022/03/05 05:50:31;;;;;;;20.67;8.80;;;;;-0.90;101496.00;;;;4904241;29;21067;-67
2022/03/05 05:53:18;;;;;;;24.53;9.57;;;;;-0.90;101500.00;;;;4909996;29;20817;-68
2022/03/05 05:56:05;;;;;;;28.07;8.53;;;;;-0.90;101513.00;;;;4911258;29;20320;-67
2022/03/05 05:58:53;;;;;;;17.40;8.40;;;;;-1.10;101510.00;;;;4912845;29;20838;-68
2022/03/05 06:01:39;;;;;;;18.60;7.63;;;;;-1.00;101510.00;;;;4895807;29;20748;-69
2022/03/05 06:04:26;;;;;;;29.63;7.67;;;;;-0.90;101496.00;;;;4910826;29;20237;-67
2022/03/05 06:07:12;;;;;;;26.90;9.17;;;;;-1.10;101504.00;;;;4913038;29;20235;-67
2022/03/05 06:09:59;;;;;;;20.93;6.90;;;;;-1.00;101508.00;;;;4903879;29;20244;-68
2022/03/05 06:12:45;;;;;;;26.13;8.50;;;;;-1.00;101497.00;;;;4907924;29;20725;-67
2022/03/05 06:15:33;;;;;;;18.20;7.53;;;;;-1.00;101500.00;;;;4903794;29;20304;-67
2022/03/05 06:18:19;;;;;;;25.23;8.67;;;;;-1.10;101494.00;;;;4910566;29;20303;-67
2022/03/05 06:21:08;;;;;;;26.00;7.63;;;;;-1.10;101490.00;;;;4910781;29;20325;-70
2022/03/05 06:23:55;;;;;;;21.00;8.80;;;;;-1.10;101493.00;;;;4910090;29;20703;-69
2022/03/05 06:26:41;;;;;;;22.37;8.50;;;;;-1.00;101494.00;;;;4901385;29;20245;-68
2022/03/05 06:29:28;;;;;;;27.67;8.57;;;;;-1.10;101497.00;;;;4895855;29;20356;-67
2022/03/05 06:32:15;;;;;;;23.17;8.67;;;;;-1.00;101488.00;;;;4908737;29;20613;-67
2022/03/05 06:35:02;;;;;;;24.60;9.33;;;;;-1.00;101497.00;;;;4908849;29;20282;-68
2022/03/05 06:37:48;;;;;;;20.00;7.80;;;;;-1.10;101489.00;;;;4912708;29;20241;-69
2022/03/05 06:40:34;;;;;;;17.03;8.63;;;;;-1.10;101504.00;;;;4904798;29;20288;-67
2022/03/05 06:43:20;;;;;;;16.90;7.97;;;;;-1.00;101502.00;;;;4910327;29;20373;-68
2022/03/05 06:46:07;;;;;;;16.33;8.03;;;;;-1.10;101505.00;;;;4905077;29;20233;-67
2022/03/05 06:48:55;;;;;;;19.93;7.73;;;;;-1.00;101506.00;;;;4898369;29;20248;-69
2022/03/05 06:51:41;;;;;;;22.20;8.27;;;;;-1.00;101497.00;;;;4904450;29;20663;-68
2022/03/05 06:54:27;;;;;;;22.53;8.47;;;;;-0.90;101500.00;;;;4910606;29;20237;-68
2022/03/05 06:57:13;;;;;;;17.57;7.37;;;;;-0.90;101508.00;;;;4910125;29;20233;-68
2022/03/05 07:00:00;;;;;;;22.33;8.53;;;;;-0.90;101511.00;;;;4912152;29;20669;-67
2022/03/05 07:02:46;;;;;;;18.53;9.37;;;;;-0.70;101510.00;;;;4898423;29;20663;-68
2022/03/05 07:05:34;;;;;;;20.00;7.40;;;;;-0.60;101521.00;;;;4903888;29;20382;-67
2022/03/05 07:08:20;;;;;;;18.67;8.67;;;;;-0.50;101520.00;;;;4909302;29;20791;-69
2022/03/05 07:11:06;;;;;;;23.60;8.33;;;;;-0.30;101525.00;;;;4909773;29;20331;-67
2022/03/05 07:13:53;;;;;;;23.77;8.77;;;;;-0.30;101524.00;;;;4909953;29;20233;-69
2022/03/05 07:16:39;;;;;;;20.57;8.20;;;;;-0.40;101526.00;;;;4898296;29;20241;-68
2022/03/05 07:19:26;;;;;;;25.23;9.23;;;;;-0.20;101532.00;;;;4907174;29;20711;-67
2022/03/05 07:22:14;;;;;;;25.77;9.43;;;;;-0.20;101539.00;;;;4908760;29;20402;-67
2022/03/05 07:25:00;;;;;;;21.83;8.07;;;;;-0.20;101550.00;;;;4909533;29;20265;-67
2022/03/05 07:27:46;;;;;;;20.33;7.90;;;;;0.00;101543.00;;;;4903852;29;20301;-67
2022/03/05 07:30:33;;;;;;;18.27;8.10;;;;;0.00;101550.00;;;;4907046;29;20309;-67
2022/03/05 07:33:19;;;;;;;19.00;7.67;;;;;0.10;101556.00;;;;4909427;29;20237;-68
2022/03/05 07:36:06;;;;;;;23.43;8.60;;;;;0.00;101557.00;;;;4909114;29;20233;-68
2022/03/05 07:38:54;;;;;;;20.43;9.27;;;;;0.00;101554.00;;;;4908917;29;20904;-68
2022/03/05 07:41:41;;;;;;;23.03;8.67;;;;;0.10;101558.00;;;;4903124;29;20237;-68
2022/03/05 07:44:27;;;;;;;24.20;8.63;;;;;0.10;101558.00;;;;4909439;29;20338;-69
2022/03/05 07:47:13;;;;;;;25.77;8.80;;;;;0.20;101563.00;;;;4909283;29;20779;-71
2022/03/05 07:50:00;;;;;;;26.57;9.33;;;;;0.20;101562.00;;;;4909334;29;20245;-69
2022/03/05 07:52:46;;;;;;;18.73;8.53;;;;;0.40;101551.00;;;;4904358;29;20240;-68
2022/03/05 07:55:34;;;;;;;22.00;7.40;;;;;0.40;101570.00;;;;4910404;29;20317;-69
2022/03/05 07:58:21;;;;;;;23.20;9.20;;;;;0.50;101569.00;;;;4909835;29;20245;-70
2022/03/05 08:01:08;;;;;;;25.77;7.93;;;;;0.50;101568.00;;;;4911349;29;20440;-69
2022/03/05 08:03:54;;;;;;;17.03;7.60;;;;;0.60;101573.00;;;;4910223;29;20253;-69
2022/03/05 08:06:41;;;;;;;25.50;8.87;;;;;0.80;101565.00;;;;4905751;29;20240;-68
2022/03/05 08:09:28;;;;;;;24.20;9.93;;;;;0.90;101577.00;;;;4908946;29;20237;-68
2022/03/05 08:12:15;;;;;;;37.20;9.30;;;;;1.10;101581.00;;;;4907038;29;20233;-68
2022/03/05 08:15:02;;;;;;;25.83;10.33;;;;;1.10;101588.00;;;;4909573;29;20583;-69
2022/03/05 08:17:50;;;;;;;30.83;10.90;;;;;1.10;101584.00;;;;4904142;29;20731;-68
2022/03/05 08:20:36;;;;;;;22.53;8.97;;;;;1.20;101578.00;;;;4909217;29;20231;-68
2022/03/05 08:23:22;;;;;;;22.60;9.20;;;;;1.30;101590.00;;;;4908374;29;20232;-67
2022/03/05 08:26:13;;;;;;;27.27;10.10;;;;;1.40;101586.00;;;;4905979;29;20259;-69
2022/03/05 08:29:00;;;;;;;25.67;10.07;;;;;1.40;101591.00;;;;4905312;29;20237;-68
2022/03/05 08:31:47;;;;;;;27.60;9.33;;;;;1.60;101587.00;;;;4903873;29;20257;-67
2022/03/05 08:34:33;;;;;;;32.33;10.83;;;;;1.70;101572.00;;;;4902000;29;20229;-68
2022/03/05 08:37:19;;;;;;;24.27;9.73;;;;;1.70;101576.00;;;;4906405;29;22754;-69
2022/03/05 08:40:08;;;;;;;25.07;10.27;;;;;2.00;101577.00;;;;4909301;29;20736;-69
2022/03/05 08:42:54;;;;;;;27.97;9.93;;;;;2.00;101580.00;;;;4909198;29;20238;-68
2022/03/05 08:45:41;;;;;;;18.47;8.70;;;;;2.20;101578.00;;;;4902650;29;20273;-69
2022/03/05 08:48:28;;;;;;;26.97;9.23;;;;;2.20;101581.00;;;;4912239;29;20240;-66
2022/03/05 08:51:14;;;;;;;22.70;9.27;;;;;2.40;101577.00;;;;4910941;29;20288;-68
2022/03/05 08:54:00;;;;;;;28.70;9.70;;;;;2.40;101579.00;;;;4913335;29;20241;-70
2022/03/05 08:56:47;;;;;;;27.73;9.97;;;;;2.50;101569.00;;;;4907403;29;20235;-68
2022/03/05 08:59:33;;;;;;;19.57;9.27;;;;;2.80;101573.00;;;;4907607;29;20679;-68
2022/03/05 09:02:21;;;;;;;27.73;10.37;;;;;2.90;101563.00;;;;4912827;29;20238;-68
2022/03/05 09:05:08;;;;;;;23.30;9.07;;;;;2.90;101563.00;;;;4914418;29;20877;-68
2022/03/05 09:07:54;;;;;;;20.67;8.67;;;;;3.00;101563.00;;;;4912070;29;20638;-69
2022/03/05 09:10:40;;;;;;;30.97;10.10;;;;;3.40;101560.00;;;;4914338;29;20814;-70
2022/03/05 09:13:27;;;;;;;26.27;10.47;;;;;3.50;101566.00;;;;4913005;29;20320;-68
2022/03/05 09:16:13;;;;;;;25.23;10.60;;;;;3.50;101561.00;;;;4903943;29;20234;-69
2022/03/05 09:19:00;;;;;;;28.67;10.90;;;;;3.60;101565.00;;;;4904915;29;20282;-71
2022/03/05 09:21:47;;;;;;;26.87;9.63;;;;;3.80;101558.00;;;;4912683;29;20237;-68
2022/03/05 09:24:33;;;;;;;20.33;8.63;;;;;3.90;101571.00;;;;4905135;29;20391;-69
2022/03/05 09:27:19;;;;;;;27.80;10.67;;;;;3.90;101561.00;;;;4910063;29;20569;-69
2022/03/05 09:30:08;;;;;;;31.23;9.80;;;;;4.10;101570.00;;;;4913130;29;22833;-69
2022/03/05 09:32:54;;;;;;;26.13;9.93;;;;;4.10;101570.00;;;;4902823;29;20698;-68
2022/03/05 09:35:43;;;;;;;31.70;10.00;;;;;4.30;101568.00;;;;4910069;29;20237;-69
2022/03/05 09:38:30;;;;;;;27.33;9.80;;;;;4.50;101556.00;;;;4903554;29;20263;-68
2022/03/05 09:41:17;;;;;;;27.17;9.73;;;;;4.70;101568.00;;;;4911432;29;20237;-70
2022/03/05 09:44:03;;;;;;;26.57;9.83;;;;;4.80;101565.00;;;;4913774;29;20309;-68
2022/03/05 09:46:51;;;;;;;21.60;9.40;;;;;4.90;101564.00;;;;4906634;29;21876;-70
2022/03/05 09:49:38;;;;;;;26.93;8.70;;;;;5.00;101564.00;;;;4904451;29;20784;-69
2022/03/05 09:52:27;;;;;;;20.33;9.43;;;;;5.10;101562.00;;;;4912853;29;20703;-69
2022/03/05 09:55:13;;;;;;;21.83;9.60;;;;;5.40;101554.00;;;;4913019;29;20599;-69
2022/03/05 09:58:00;;;;;;;23.97;10.00;;;;;5.40;101557.00;;;;4910863;29;20237;-68
2022/03/05 10:00:46;;;;;;;23.43;10.13;;;;;5.50;101560.00;;;;4911208;29;20233;-69
2022/03/05 10:03:43;;;;;;;23.87;9.43;;;;;5.70;101560.00;;;;4903597;29;20731;-69
2022/03/05 10:06:30;;;;;;;23.93;9.10;;;;;5.60;101560.00;;;;4910828;29;20734;-70
2022/03/05 10:09:22;;;;;;;24.93;9.97;;;;;5.90;101562.00;;;;4908941;29;20233;-71
2022/03/05 10:12:24;;;;;;;24.57;9.13;;;;;6.10;101562.00;;;;4907600;29;20246;-70
2022/03/05 10:15:13;;;;;;;23.33;9.30;;;;;6.00;101560.00;;;;4911398;29;20248;-70
2022/03/05 10:18:01;;;;;;;23.90;10.17;;;;;6.20;101558.00;;;;4902453;29;20749;-71
2022/03/05 10:20:50;;;;;;;28.30;11.57;;;;;6.30;101558.00;;;;4906284;29;20245;-70
2022/03/05 10:23:38;;;;;;;27.23;10.60;;;;;6.30;101564.00;;;;4905017;29;20228;-69
2022/03/05 10:26:26;;;;;;;25.70;9.63;;;;;6.40;101561.00;;;;4911322;29;20244;-69
2022/03/05 10:29:20;;;;;;;24.77;10.40;;;;;6.70;101558.00;;;;4910860;29;20253;-70
2022/03/05 10:32:08;;;;;;;22.23;9.60;;;;;6.60;101561.00;;;;4907601;29;20233;-68
2022/03/05 10:34:55;;;;;;;21.67;9.43;;;;;6.60;101559.00;;;;4906839;29;20293;-69
2022/03/05 10:37:51;;;;;;;23.70;9.67;;;;;6.80;101539.00;;;;4901949;29;20233;-69
2022/03/05 10:40:43;;;;;;;24.50;9.07;;;;;6.90;101547.00;;;;4898332;29;20254;-69
2022/03/05 10:43:31;;;;;;;26.40;9.70;;;;;6.90;101552.00;;;;4901717;29;20304;-70
2022/03/05 10:46:17;;;;;;;24.93;9.57;;;;;7.00;101552.00;;;;4907472;29;20289;-70
2022/03/05 10:49:07;;;;;;;21.10;8.80;;;;;7.00;101557.00;;;;4909660;29;20240;-69
2022/03/05 10:52:05;;;;;;;23.70;10.20;;;;;7.10;101562.00;;;;4912857;29;20728;-70
2022/03/05 10:54:51;;;;;;;26.50;10.00;;;;;7.50;101565.00;;;;4905299;29;20233;-70
2022/03/05 10:57:38;;;;;;;25.37;10.37;;;;;7.50;101558.00;;;;4901592;29;20241;-68
2022/03/05 11:00:26;;;;;;;23.90;9.93;;;;;7.50;101570.00;;;;4899801;29;20230;-71
2022/03/05 11:03:13;;;;;;;23.27;10.07;;;;;7.60;101569.00;;;;4902487;29;20224;-71
2022/03/05 11:05:59;;;;;;;24.63;9.33;;;;;7.80;101560.00;;;;4893180;29;20286;-70
2022/03/05 11:08:46;;;;;;;25.70;10.57;;;;;7.90;101555.00;;;;4900675;29;20240;-72
2022/03/05 11:11:35;;;;;;;22.20;9.83;;;;;8.00;101558.00;;;;4901759;29;20246;-68
2022/03/05 11:14:22;;;;;;;19.37;8.80;;;;;8.10;101557.00;;;;4910329;29;20729;-71
2022/03/05 11:17:09;;;;;;;23.43;9.80;;;;;8.20;101556.00;;;;4905590;29;20239;-71
2022/03/05 11:19:57;;;;;;;22.73;9.40;;;;;8.30;101553.00;;;;4903817;29;20240;-73
2022/03/05 11:22:49;;;;;;;19.33;9.47;;;;;8.60;101554.00;;;;4901458;29;20235;-74
2022/03/05 11:25:36;;;;;;;22.60;9.57;;;;;8.60;101498.00;;;;4904355;29;20278;-73
2022/03/05 11:28:23;;;;;;;21.27;8.93;;;;;8.50;101544.00;;;;4903043;29;20238;-72
2022/03/05 11:31:18;;;;;;;24.00;9.40;;;;;8.70;101548.00;;;;4904205;29;20228;-73
2022/03/05 11:34:14;;;;;;;18.50;9.57;;;;;8.70;101540.00;;;;4899596;29;20258;-74
2022/03/05 11:37:00;;;;;;;21.83;9.33;;;;;9.10;101542.00;;;;4899327;29;20384;-70
2022/03/05 11:39:47;;;;;;;21.00;9.37;;;;;9.00;101539.00;;;;4911144;29;20308;-72
2022/03/05 11:42:35;;;;;;;19.07;8.80;;;;;9.20;101540.00;;;;4894538;29;20326;-72
2022/03/05 11:45:26;;;;;;;18.17;9.33;;;;;9.40;101530.00;;;;4909196;29;20238;-72
2022/03/05 11:48:32;;;;;;;22.50;9.97;;;;;9.50;101536.00;;;;4899562;29;20279;-71
2022/03/05 11:51:23;;;;;;;27.57;9.67;;;;;9.50;101529.00;;;;4909365;29;20242;-73
2022/03/05 11:54:14;;;;;;;24.10;9.33;;;;;9.50;101510.00;;;;4911244;29;20811;-67
2022/03/05 11:57:21;;;;;;;21.83;9.70;;;;;9.70;101522.00;;;;4908840;29;22253;-71
2022/03/05 12:00:08;;;;;;;21.17;9.60;;;;;9.90;101526.00;;;;4907716;29;20599;-70
2022/03/05 12:02:56;;;;;;;21.63;10.27;;;;;9.90;101511.00;;;;4909439;29;20687;-70
2022/03/05 12:05:51;;;;;;;22.47;10.17;;;;;9.90;101518.00;;;;4909541;29;20232;-70
2022/03/05 12:08:52;;;;;;;23.03;10.33;;;;;9.90;101515.00;;;;4904842;29;20372;-72
2022/03/05 12:11:39;;;;;;;18.90;9.23;;;;;10.20;101507.00;;;;4904831;29;20229;-70
2022/03/05 12:14:45;;;;;;;22.50;9.83;;;;;10.10;101504.00;;;;4904794;29;20234;-72
2022/03/05 12:17:34;;;;;;;17.97;9.47;;;;;10.00;101506.00;;;;4895535;29;20232;-73
2022/03/05 12:20:24;;;;;;;25.23;11.10;;;;;10.30;101506.00;;;;4903243;29;25884;-73
2022/03/05 12:23:12;;;;;;;24.67;10.83;;;;;10.30;101502.00;;;;4902151;29;20236;-72
2022/03/05 12:26:03;;;;;;;25.47;10.83;;;;;10.50;101495.00;;;;4879763;29;20300;-72
2022/03/05 12:28:51;;;;;;;26.37;10.93;;;;;10.60;101503.00;;;;4900088;29;20771;-72
2022/03/05 12:31:41;;;;;;;22.57;9.53;;;;;10.80;101498.00;;;;4908986;29;20232;-73
2022/03/05 12:34:27;;;;;;;20.97;10.33;;;;;10.80;101494.00;;;;4912404;29;20241;-74
2022/03/05 12:37:17;;;;;;;19.40;9.57;;;;;10.80;101505.00;;;;4909912;29;20290;-72
2022/03/05 12:40:05;;;;;;;21.43;10.20;;;;;10.80;101487.00;;;;4910446;29;20742;-72
2022/03/05 12:42:54;;;;;;;24.70;9.47;;;;;11.00;101493.00;;;;4911238;29;20236;-72
2022/03/05 12:45:43;;;;;;;18.17;8.80;;;;;11.10;101490.00;;;;4905651;29;20321;-74
2022/03/05 12:48:30;;;;;;;22.70;9.83;;;;;11.20;101495.00;;;;4913999;29;20335;-69
2022/03/05 12:51:16;;;;;;;21.53;9.17;;;;;11.20;101496.00;;;;4911872;29;20389;-71
2022/03/05 12:54:04;;;;;;;20.30;9.73;;;;;11.00;101491.00;;;;4914143;29;20233;-73
2022/03/05 12:56:55;;;;;;;21.93;10.17;;;;;11.30;101491.00;;;;4917753;29;20241;-72
2022/03/05 12:59:43;;;;;;;20.90;9.60;;;;;11.40;101490.00;;;;4911876;29;20372;-72
2022/03/05 13:02:33;;;;;;;21.67;9.60;;;;;11.50;101494.00;;;;4912351;29;20373;-72
2022/03/05 13:05:18;;;;;;;23.43;10.03;;;;;11.60;101487.00;;;;4910714;29;20716;-73
2022/03/05 13:08:05;;;;;;;24.77;10.80;;;;;11.80;101494.00;;;;4911672;29;20241;-72
2022/03/05 13:11:00;;;;;;;25.40;10.20;;;;;11.90;101488.00;;;;4907598;29;20233;-73
2022/03/05 13:13:52;;;;;;;23.23;10.87;;;;;11.80;101488.00;;;;4910969;29;20398;-72
2022/03/05 13:16:41;;;;;;;20.37;9.77;;;;;11.70;101476.00;;;;4909112;29;20241;-72
2022/03/05 13:19:27;;;;;;;20.27;9.87;;;;;11.80;101479.00;;;;4904478;29;20257;-69
2022/03/05 13:22:25;;;;;;;19.07;9.40;;;;;11.70;101484.00;;;;4911179;29;20255;-72
2022/03/05 13:25:12;;;;;;;22.07;10.33;;;;;11.70;101483.00;;;;4915829;29;20349;-73
2022/03/05 13:27:59;;;;;;;21.07;10.53;;;;;12.10;101483.00;;;;4903754;29;20321;-69
2022/03/05 13:30:49;;;;;;;20.10;10.17;;;;;12.20;101488.00;;;;4901885;29;20803;-71
2022/03/05 13:33:47;;;;;;;22.03;9.90;;;;;11.80;101482.00;;;;4899891;29;20374;-71
2022/03/05 13:36:38;;;;;;;23.83;9.57;;;;;11.90;101484.00;;;;4902946;29;20233;-72
2022/03/05 13:39:28;;;;;;;21.43;10.13;;;;;12.30;101490.00;;;;4909304;29;20241;-73
2022/03/05 13:42:15;;;;;;;21.70;10.40;;;;;12.30;101484.00;;;;4900272;29;20604;-71
2022/03/05 13:45:03;;;;;;;21.70;10.17;;;;;11.90;101484.00;;;;4911252;29;20268;-69
2022/03/05 13:47:50;;;;;;;20.57;9.60;;;;;12.20;101490.00;;;;4908970;29;20254;-72
2022/03/05 13:50:40;;;;;;;20.93;9.40;;;;;11.80;101480.00;;;;4904866;29;20234;-72